sensor_id;sensor_type;location;lat;lon;timestamp;temperature;humidity
69418;DHT22;56610;48.872;2.400;2023-03-08T00:02:12;9.50;99.90
69418;DHT22;56610;48.872;2.400;2023-03-08T00:04:37;9.50;99.90
69418;DHT22;56610;48.872;2.400;2023-03-08T00:07:03;9.50;99.90
69418;DHT22;56610;48.872;2.400;2023-03-08T00:09:28;9.40;99.90
69418;DHT22;56610;48.872;2.400;2023-03-08T00:11:54;9.20;99.90
69418;DHT22;56610;48.872;2.400;2023-03-08T00:14:19;9.10;99.90
69418;DHT22;56610;48.872;2.400;2023-03-08T00:16:46;9.10;99.90
69418;DHT22;56610;48.872;2.400;2023-03-08T00:19:12;9.10;99.90
69418;DHT22;56610;48.872;2.400;2023-03-08T00:21:38;9.10;99.90
69418;DHT22;56610;48.872;2.400;2023-03-08T00:24:04;9.00;99.90
69418;DHT22;56610;48.872;2.400;2023-03-08T00:26:30;8.90;99.90
69418;DHT22;56610;48.872;2.400;2023-03-08T00:28:55;8.80;99.90
69418;DHT22;56610;48.872;2.400;2023-03-08T00:31:21;8.50;99.90
69418;DHT22;56610;48.872;2.400;2023-03-08T00:33:46;8.70;99.90
69418;DHT22;56610;48.872;2.400;2023-03-08T00:36:17;8.80;99.90
69418;DHT22;56610;48.872;2.400;2023-03-08T00:38:43;8.90;99.90
69418;DHT22;56610;48.872;2.400;2023-03-08T00:41:09;8.80;99.90
69418;DHT22;56610;48.872;2.400;2023-03-08T00:43:35;8.80;99.90
69418;DHT22;56610;48.872;2.400;2023-03-08T00:46:01;8.60;99.90
69418;DHT22;56610;48.872;2.400;2023-03-08T00:48:26;8.40;99.90
69418;DHT22;56610;48.872;2.400;2023-03-08T00:50:52;8.40;99.90
69418;DHT22;56610;48.872;2.400;2023-03-08T00:53:18;8.50;99.90
69418;DHT22;56610;48.872;2.400;2023-03-08T00:55:55;8.60;99.90
69418;DHT22;56610;48.872;2.400;2023-03-08T00:58:22;8.80;99.90
69418;DHT22;56610;48.872;2.400;2023-03-08T01:00:48;8.80;99.90
69418;DHT22;56610;48.872;2.400;2023-03-08T01:03:14;8.70;99.90
69418;DHT22;56610;48.872;2.400;2023-03-08T01:05:41;8.50;99.90
69418;DHT22;56610;48.872;2.400;2023-03-08T01:08:07;8.30;99.90
69418;DHT22;56610;48.872;2.400;2023-03-08T01:10:34;8.40;99.90
69418;DHT22;56610;48.872;2.400;2023-03-08T01:13:00;8.30;99.90
69418;DHT22;56610;48.872;2.400;2023-03-08T01:15:26;8.30;99.90
69418;DHT22;56610;48.872;2.400;2023-03-08T01:17:51;8.30;99.90
69418;DHT22;56610;48.872;2.400;2023-03-08T01:20:17;8.40;99.90
69418;DHT22;56610;48.872;2.400;2023-03-08T01:22:42;8.50;99.90
69418;DHT22;56610;48.872;2.400;2023-03-08T01:25:08;8.30;99.90
69418;DHT22;56610;48.872;2.400;2023-03-08T01:27:34;8.40;99.90
69418;DHT22;56610;48.872;2.400;2023-03-08T01:29:59;8.30;99.90
69418;DHT22;56610;48.872;2.400;2023-03-08T01:32:25;8.30;99.90
69418;DHT22;56610;48.872;2.400;2023-03-08T01:34:51;8.20;99.90
69418;DHT22;56610;48.872;2.400;2023-03-08T01:37:16;8.10;99.90
69418;DHT22;56610;48.872;2.400;2023-03-08T01:39:42;8.20;99.90
69418;DHT22;56610;48.872;2.400;2023-03-08T01:42:08;8.20;99.90
69418;DHT22;56610;48.872;2.400;2023-03-08T01:44:54;8.20;99.90
69418;DHT22;56610;48.872;2.400;2023-03-08T01:47:22;8.10;99.90
69418;DHT22;56610;48.872;2.400;2023-03-08T01:49:49;8.20;99.90
69418;DHT22;56610;48.872;2.400;2023-03-08T01:52:21;8.20;99.90
69418;DHT22;56610;48.872;2.400;2023-03-08T01:54:55;8.20;99.90
69418;DHT22;56610;48.872;2.400;2023-03-08T01:57:29;8.10;99.90
69418;DHT22;56610;48.872;2.400;2023-03-08T02:00:03;8.00;99.90
69418;DHT22;56610;48.872;2.400;2023-03-08T02:02:40;7.90;99.90
69418;DHT22;56610;48.872;2.400;2023-03-08T02:05:09;8.00;99.90
69418;DHT22;56610;48.872;2.400;2023-03-08T02:07:35;8.00;99.90
69418;DHT22;56610;48.872;2.400;2023-03-08T02:10:01;8.00;99.90
69418;DHT22;56610;48.872;2.400;2023-03-08T02:12:27;8.10;99.90
69418;DHT22;56610;48.872;2.400;2023-03-08T02:14:54;8.20;99.90
69418;DHT22;56610;48.872;2.400;2023-03-08T02:17:21;8.20;99.90
69418;DHT22;56610;48.872;2.400;2023-03-08T02:19:58;8.20;99.90
69418;DHT22;56610;48.872;2.400;2023-03-08T02:22:26;8.10;99.90
69418;DHT22;56610;48.872;2.400;2023-03-08T02:24:52;8.10;99.90
69418;DHT22;56610;48.872;2.400;2023-03-08T02:27:23;8.10;99.90
69418;DHT22;56610;48.872;2.400;2023-03-08T02:29:50;8.00;99.90
69418;DHT22;56610;48.872;2.400;2023-03-08T02:32:15;7.80;99.90
69418;DHT22;56610;48.872;2.400;2023-03-08T02:34:44;7.80;99.90
69418;DHT22;56610;48.872;2.400;2023-03-08T02:37:10;7.80;99.90
69418;DHT22;56610;48.872;2.400;2023-03-08T02:39:35;7.70;99.90
69418;DHT22;56610;48.872;2.400;2023-03-08T02:42:01;7.80;99.90
69418;DHT22;56610;48.872;2.400;2023-03-08T02:44:26;7.70;99.90
69418;DHT22;56610;48.872;2.400;2023-03-08T02:46:52;7.60;99.90
69418;DHT22;56610;48.872;2.400;2023-03-08T02:49:18;7.60;99.90
69418;DHT22;56610;48.872;2.400;2023-03-08T02:51:43;7.70;99.90
69418;DHT22;56610;48.872;2.400;2023-03-08T02:54:09;7.70;99.90
69418;DHT22;56610;48.872;2.400;2023-03-08T02:56:35;7.80;99.90
69418;DHT22;56610;48.872;2.400;2023-03-08T02:59:02;7.70;99.90
69418;DHT22;56610;48.872;2.400;2023-03-08T03:01:28;7.70;99.90
69418;DHT22;56610;48.872;2.400;2023-03-08T03:03:54;7.70;99.90
69418;DHT22;56610;48.872;2.400;2023-03-08T03:06:20;7.60;99.90
69418;DHT22;56610;48.872;2.400;2023-03-08T03:08:46;7.50;99.90
69418;DHT22;56610;48.872;2.400;2023-03-08T03:11:16;7.60;99.90
69418;DHT22;56610;48.872;2.400;2023-03-08T03:13:43;7.60;99.90
69418;DHT22;56610;48.872;2.400;2023-03-08T03:16:11;7.50;99.90
69418;DHT22;56610;48.872;2.400;2023-03-08T03:18:37;7.60;99.90
69418;DHT22;56610;48.872;2.400;2023-03-08T03:21:07;7.70;99.90
69418;DHT22;56610;48.872;2.400;2023-03-08T03:23:33;7.80;99.90
69418;DHT22;56610;48.872;2.400;2023-03-08T03:26:11;7.70;99.90
69418;DHT22;56610;48.872;2.400;2023-03-08T03:28:36;7.70;99.90
69418;DHT22;56610;48.872;2.400;2023-03-08T03:31:16;7.80;99.90
69418;DHT22;56610;48.872;2.400;2023-03-08T03:33:43;7.80;99.90
69418;DHT22;56610;48.872;2.400;2023-03-08T03:36:11;7.90;99.90
69418;DHT22;56610;48.872;2.400;2023-03-08T03:38:38;7.90;99.90
69418;DHT22;56610;48.872;2.400;2023-03-08T03:41:08;7.90;99.90
69418;DHT22;56610;48.872;2.400;2023-03-08T03:43:35;7.80;99.90
69418;DHT22;56610;48.872;2.400;2023-03-08T03:46:03;7.70;99.90
69418;DHT22;56610;48.872;2.400;2023-03-08T03:48:29;7.80;99.90
69418;DHT22;56610;48.872;2.400;2023-03-08T03:50:59;7.70;99.90
69418;DHT22;56610;48.872;2.400;2023-03-08T03:53:27;7.80;99.90
69418;DHT22;56610;48.872;2.400;2023-03-08T03:55:52;7.70;99.90
69418;DHT22;56610;48.872;2.400;2023-03-08T03:58:18;7.50;99.90
69418;DHT22;56610;48.872;2.400;2023-03-08T04:00:44;7.50;99.90
69418;DHT22;56610;48.872;2.400;2023-03-08T04:03:29;7.60;99.90
69418;DHT22;56610;48.872;2.400;2023-03-08T04:06:08;7.60;99.90
69418;DHT22;56610;48.872;2.400;2023-03-08T04:08:34;7.50;99.90
69418;DHT22;56610;48.872;2.400;2023-03-08T04:11:09;7.50;99.90
69418;DHT22;56610;48.872;2.400;2023-03-08T04:13:36;7.50;99.90
69418;DHT22;56610;48.872;2.400;2023-03-08T04:16:12;7.50;99.90
69418;DHT22;56610;48.872;2.400;2023-03-08T04:18:38;7.50;99.90
69418;DHT22;56610;48.872;2.400;2023-03-08T04:21:04;7.40;99.90
69418;DHT22;56610;48.872;2.400;2023-03-08T04:23:30;7.40;99.90
69418;DHT22;56610;48.872;2.400;2023-03-08T04:25:55;7.40;99.90
69418;DHT22;56610;48.872;2.400;2023-03-08T04:28:21;7.50;99.90
69418;DHT22;56610;48.872;2.400;2023-03-08T04:30:46;7.50;99.90
69418;DHT22;56610;48.872;2.400;2023-03-08T04:33:12;7.50;99.90
69418;DHT22;56610;48.872;2.400;2023-03-08T04:35:38;7.50;99.90
69418;DHT22;56610;48.872;2.400;2023-03-08T04:38:04;7.60;99.90
69418;DHT22;56610;48.872;2.400;2023-03-08T04:40:29;7.60;99.90
69418;DHT22;56610;48.872;2.400;2023-03-08T04:42:55;7.60;99.90
69418;DHT22;56610;48.872;2.400;2023-03-08T04:45:21;7.70;99.90
69418;DHT22;56610;48.872;2.400;2023-03-08T04:47:46;7.60;99.90
69418;DHT22;56610;48.872;2.400;2023-03-08T04:50:12;7.60;99.90
69418;DHT22;56610;48.872;2.400;2023-03-08T04:52:38;7.50;99.90
69418;DHT22;56610;48.872;2.400;2023-03-08T04:55:04;7.40;99.90
69418;DHT22;56610;48.872;2.400;2023-03-08T04:57:30;7.40;99.90
69418;DHT22;56610;48.872;2.400;2023-03-08T04:59:56;7.40;99.90
69418;DHT22;56610;48.872;2.400;2023-03-08T05:02:22;7.50;99.90
69418;DHT22;56610;48.872;2.400;2023-03-08T05:04:48;7.60;99.90
69418;DHT22;56610;48.872;2.400;2023-03-08T05:07:13;7.60;99.90
69418;DHT22;56610;48.872;2.400;2023-03-08T05:09:39;7.60;99.90
69418;DHT22;56610;48.872;2.400;2023-03-08T05:12:04;7.70;99.90
69418;DHT22;56610;48.872;2.400;2023-03-08T05:14:30;7.70;99.90
69418;DHT22;56610;48.872;2.400;2023-03-08T05:16:56;7.70;99.90
69418;DHT22;56610;48.872;2.400;2023-03-08T05:19:22;7.80;99.90
69418;DHT22;56610;48.872;2.400;2023-03-08T05:21:48;7.80;99.90
69418;DHT22;56610;48.872;2.400;2023-03-08T05:24:14;7.90;99.90
69418;DHT22;56610;48.872;2.400;2023-03-08T05:26:39;7.90;99.90
69418;DHT22;56610;48.872;2.400;2023-03-08T05:29:05;7.80;99.90
69418;DHT22;56610;48.872;2.400;2023-03-08T05:31:32;7.90;99.90
69418;DHT22;56610;48.872;2.400;2023-03-08T05:33:58;7.90;99.90
69418;DHT22;56610;48.872;2.400;2023-03-08T05:36:23;7.90;99.90
69418;DHT22;56610;48.872;2.400;2023-03-08T05:38:53;7.90;99.90
69418;DHT22;56610;48.872;2.400;2023-03-08T05:41:19;8.10;99.90
69418;DHT22;56610;48.872;2.400;2023-03-08T05:43:45;8.20;99.90
69418;DHT22;56610;48.872;2.400;2023-03-08T05:46:13;8.30;99.90
69418;DHT22;56610;48.872;2.400;2023-03-08T05:48:39;8.20;99.90
69418;DHT22;56610;48.872;2.400;2023-03-08T05:51:11;8.30;99.90
69418;DHT22;56610;48.872;2.400;2023-03-08T05:53:37;8.30;99.90
69418;DHT22;56610;48.872;2.400;2023-03-08T05:56:11;8.40;99.90
69418;DHT22;56610;48.872;2.400;2023-03-08T05:58:37;8.40;99.90
69418;DHT22;56610;48.872;2.400;2023-03-08T06:01:17;8.40;99.90
69418;DHT22;56610;48.872;2.400;2023-03-08T06:03:44;8.40;99.90
69418;DHT22;56610;48.872;2.400;2023-03-08T06:06:10;8.40;99.90
69418;DHT22;56610;48.872;2.400;2023-03-08T06:08:36;8.40;99.90
69418;DHT22;56610;48.872;2.400;2023-03-08T06:11:02;8.50;99.90
69418;DHT22;56610;48.872;2.400;2023-03-08T06:13:28;8.50;99.90
69418;DHT22;56610;48.872;2.400;2023-03-08T06:15:55;8.60;99.90
69418;DHT22;56610;48.872;2.400;2023-03-08T06:18:21;8.60;99.90
69418;DHT22;56610;48.872;2.400;2023-03-08T06:21:01;8.70;99.90
69418;DHT22;56610;48.872;2.400;2023-03-08T06:23:28;8.70;99.90
69418;DHT22;56610;48.872;2.400;2023-03-08T06:25:55;8.80;99.90
69418;DHT22;56610;48.872;2.400;2023-03-08T06:28:21;8.90;99.90
69418;DHT22;56610;48.872;2.400;2023-03-08T06:30:47;9.00;99.90
69418;DHT22;56610;48.872;2.400;2023-03-08T06:33:17;9.00;99.90
69418;DHT22;56610;48.872;2.400;2023-03-08T06:35:53;9.00;99.90
69418;DHT22;56610;48.872;2.400;2023-03-08T06:38:19;9.10;99.90
69418;DHT22;56610;48.872;2.400;2023-03-08T06:40:44;9.10;99.90
69418;DHT22;56610;48.872;2.400;2023-03-08T06:43:10;9.20;99.90
69418;DHT22;56610;48.872;2.400;2023-03-08T06:45:37;9.30;99.90
69418;DHT22;56610;48.872;2.400;2023-03-08T06:48:02;9.50;99.90
69418;DHT22;56610;48.872;2.400;2023-03-08T06:50:28;9.50;99.90
69418;DHT22;56610;48.872;2.400;2023-03-08T06:52:54;9.70;99.90
69418;DHT22;56610;48.872;2.400;2023-03-08T06:55:19;9.80;99.90
69418;DHT22;56610;48.872;2.400;2023-03-08T06:57:45;9.80;99.90
69418;DHT22;56610;48.872;2.400;2023-03-08T07:00:11;9.90;99.90
69418;DHT22;56610;48.872;2.400;2023-03-08T07:02:38;9.90;99.90
69418;DHT22;56610;48.872;2.400;2023-03-08T07:05:04;9.90;99.90
69418;DHT22;56610;48.872;2.400;2023-03-08T07:07:29;10.00;99.90
69418;DHT22;56610;48.872;2.400;2023-03-08T07:09:55;10.20;99.90
69418;DHT22;56610;48.872;2.400;2023-03-08T07:12:22;10.30;99.90
69418;DHT22;56610;48.872;2.400;2023-03-08T07:14:50;10.30;99.90
69418;DHT22;56610;48.872;2.400;2023-03-08T07:17:15;10.40;99.90
69418;DHT22;56610;48.872;2.400;2023-03-08T07:19:41;10.40;99.90
69418;DHT22;56610;48.872;2.400;2023-03-08T07:22:06;10.40;99.90
69418;DHT22;56610;48.872;2.400;2023-03-08T07:24:32;10.40;99.90
69418;DHT22;56610;48.872;2.400;2023-03-08T07:26:58;10.50;99.90
69418;DHT22;56610;48.872;2.400;2023-03-08T07:29:26;10.60;99.90
69418;DHT22;56610;48.872;2.400;2023-03-08T07:31:52;10.60;99.90
69418;DHT22;56610;48.872;2.400;2023-03-08T07:34:17;10.70;99.90
69418;DHT22;56610;48.872;2.400;2023-03-08T07:36:43;10.80;99.90
69418;DHT22;56610;48.872;2.400;2023-03-08T07:39:08;10.90;99.90
69418;DHT22;56610;48.872;2.400;2023-03-08T07:41:34;11.00;99.90
69418;DHT22;56610;48.872;2.400;2023-03-08T07:44:00;11.10;99.90
69418;DHT22;56610;48.872;2.400;2023-03-08T07:46:26;11.10;99.90
69418;DHT22;56610;48.872;2.400;2023-03-08T07:48:52;11.20;99.90
69418;DHT22;56610;48.872;2.400;2023-03-08T07:51:18;11.30;99.90
69418;DHT22;56610;48.872;2.400;2023-03-08T07:53:44;11.40;99.90
69418;DHT22;56610;48.872;2.400;2023-03-08T07:56:09;11.50;99.90
69418;DHT22;56610;48.872;2.400;2023-03-08T07:58:36;11.50;99.90
69418;DHT22;56610;48.872;2.400;2023-03-08T08:01:10;11.60;99.90
69418;DHT22;56610;48.872;2.400;2023-03-08T08:03:36;11.60;99.90
69418;DHT22;56610;48.872;2.400;2023-03-08T08:06:03;11.70;99.90
69418;DHT22;56610;48.872;2.400;2023-03-08T08:08:29;11.70;99.90
69418;DHT22;56610;48.872;2.400;2023-03-08T08:10:55;11.80;99.90
69418;DHT22;56610;48.872;2.400;2023-03-08T08:13:20;11.90;99.90
69418;DHT22;56610;48.872;2.400;2023-03-08T08:15:46;12.10;99.90
69418;DHT22;56610;48.872;2.400;2023-03-08T08:18:11;12.20;99.90
69418;DHT22;56610;48.872;2.400;2023-03-08T08:20:37;12.20;99.90
69418;DHT22;56610;48.872;2.400;2023-03-08T08:23:06;12.30;99.90
69418;DHT22;56610;48.872;2.400;2023-03-08T08:25:32;12.30;99.90
69418;DHT22;56610;48.872;2.400;2023-03-08T08:27:57;12.40;99.90
69418;DHT22;56610;48.872;2.400;2023-03-08T08:30:23;12.50;99.90
69418;DHT22;56610;48.872;2.400;2023-03-08T08:32:51;12.50;99.90
69418;DHT22;56610;48.872;2.400;2023-03-08T08:35:17;12.60;99.90
69418;DHT22;56610;48.872;2.400;2023-03-08T08:37:44;12.60;99.90
69418;DHT22;56610;48.872;2.400;2023-03-08T08:40:10;12.60;99.90
69418;DHT22;56610;48.872;2.400;2023-03-08T08:42:36;12.70;99.90
69418;DHT22;56610;48.872;2.400;2023-03-08T08:45:02;12.80;99.90
69418;DHT22;56610;48.872;2.400;2023-03-08T08:47:28;12.80;99.90
69418;DHT22;56610;48.872;2.400;2023-03-08T08:49:54;12.90;99.90
69418;DHT22;56610;48.872;2.400;2023-03-08T08:52:19;12.90;99.90
69418;DHT22;56610;48.872;2.400;2023-03-08T08:54:45;13.00;99.90
69418;DHT22;56610;48.872;2.400;2023-03-08T08:57:10;13.00;99.90
69418;DHT22;56610;48.872;2.400;2023-03-08T08:59:36;13.00;99.90
69418;DHT22;56610;48.872;2.400;2023-03-08T09:02:02;13.00;99.90
69418;DHT22;56610;48.872;2.400;2023-03-08T09:04:27;13.00;99.90
69418;DHT22;56610;48.872;2.400;2023-03-08T09:06:53;13.00;99.90
69418;DHT22;56610;48.872;2.400;2023-03-08T09:09:18;12.90;99.90
69418;DHT22;56610;48.872;2.400;2023-03-08T09:11:44;12.90;99.90
69418;DHT22;56610;48.872;2.400;2023-03-08T09:14:12;13.10;99.90
69418;DHT22;56610;48.872;2.400;2023-03-08T09:16:38;13.20;99.90
69418;DHT22;56610;48.872;2.400;2023-03-08T09:19:05;13.20;99.90
69418;DHT22;56610;48.872;2.400;2023-03-08T09:21:31;13.30;99.90
69418;DHT22;56610;48.872;2.400;2023-03-08T09:24:02;13.30;99.90
69418;DHT22;56610;48.872;2.400;2023-03-08T09:26:29;13.40;99.90
69418;DHT22;56610;48.872;2.400;2023-03-08T09:28:57;13.50;99.90
69418;DHT22;56610;48.872;2.400;2023-03-08T09:31:22;13.60;99.90
69418;DHT22;56610;48.872;2.400;2023-03-08T09:33:49;13.70;99.90
69418;DHT22;56610;48.872;2.400;2023-03-08T09:36:19;13.80;99.90
69418;DHT22;56610;48.872;2.400;2023-03-08T09:38:49;13.90;99.90
69418;DHT22;56610;48.872;2.400;2023-03-08T09:47:04;13.70;99.90
69418;DHT22;56610;48.872;2.400;2023-03-08T09:49:31;13.70;99.90
69418;DHT22;56610;48.872;2.400;2023-03-08T09:54:31;13.70;99.90
69418;DHT22;56610;48.872;2.400;2023-03-08T09:56:59;13.80;99.90
69418;DHT22;56610;48.872;2.400;2023-03-08T09:59:56;13.80;99.90
69418;DHT22;56610;48.872;2.400;2023-03-08T10:05:26;14.00;99.90
69418;DHT22;56610;48.872;2.400;2023-03-08T10:07:58;14.20;99.90
69418;DHT22;56610;48.872;2.400;2023-03-08T10:13:32;14.30;99.90
69418;DHT22;56610;48.872;2.400;2023-03-08T10:16:05;14.50;99.90
69418;DHT22;56610;48.872;2.400;2023-03-08T10:18:49;14.70;99.90
69418;DHT22;56610;48.872;2.400;2023-03-08T10:21:17;14.70;99.90
69418;DHT22;56610;48.872;2.400;2023-03-08T10:23:47;14.80;99.90
69418;DHT22;56610;48.872;2.400;2023-03-08T10:26:14;14.90;99.90
69418;DHT22;56610;48.872;2.400;2023-03-08T10:28:40;14.90;99.90
69418;DHT22;56610;48.872;2.400;2023-03-08T10:31:19;15.00;99.90
69418;DHT22;56610;48.872;2.400;2023-03-08T10:33:47;14.90;99.90
69418;DHT22;56610;48.872;2.400;2023-03-08T10:36:23;14.90;99.90
69418;DHT22;56610;48.872;2.400;2023-03-08T10:39:16;15.00;99.90
69418;DHT22;56610;48.872;2.400;2023-03-08T10:41:45;15.10;99.90
69418;DHT22;56610;48.872;2.400;2023-03-08T10:44:33;15.10;99.90
69418;DHT22;56610;48.872;2.400;2023-03-08T10:47:04;15.10;99.90
69418;DHT22;56610;48.872;2.400;2023-03-08T10:49:41;15.20;99.90
69418;DHT22;56610;48.872;2.400;2023-03-08T10:52:25;15.30;99.90
69418;DHT22;56610;48.872;2.400;2023-03-08T10:55:12;15.30;99.90
69418;DHT22;56610;48.872;2.400;2023-03-08T10:57:50;15.40;99.90
69418;DHT22;56610;48.872;2.400;2023-03-08T11:02:46;15.40;99.90
69418;DHT22;56610;48.872;2.400;2023-03-08T11:05:23;15.40;99.90
69418;DHT22;56610;48.872;2.400;2023-03-08T11:07:56;15.40;99.90
69418;DHT22;56610;48.872;2.400;2023-03-08T11:10:24;15.40;99.90
69418;DHT22;56610;48.872;2.400;2023-03-08T11:13:20;15.40;99.90
69418;DHT22;56610;48.872;2.400;2023-03-08T11:16:07;15.50;99.90
69418;DHT22;56610;48.872;2.400;2023-03-08T11:18:46;15.80;99.90
69418;DHT22;56610;48.872;2.400;2023-03-08T11:21:25;16.00;99.90
69418;DHT22;56610;48.872;2.400;2023-03-08T11:24:08;16.00;99.90
69418;DHT22;56610;48.872;2.400;2023-03-08T11:29:36;16.00;99.90
69418;DHT22;56610;48.872;2.400;2023-03-08T11:37:49;15.90;99.90
69418;DHT22;56610;48.872;2.400;2023-03-08T11:43:00;15.90;99.90
69418;DHT22;56610;48.872;2.400;2023-03-08T11:45:50;15.80;99.90
69418;DHT22;56610;48.872;2.400;2023-03-08T11:48:40;15.80;99.90
69418;DHT22;56610;48.872;2.400;2023-03-08T11:51:21;15.70;99.90
69418;DHT22;56610;48.872;2.400;2023-03-08T11:56:50;15.50;99.90
69418;DHT22;56610;48.872;2.400;2023-03-08T11:59:34;15.50;99.90
69418;DHT22;56610;48.872;2.400;2023-03-08T12:04:58;15.80;99.90
69418;DHT22;56610;48.872;2.400;2023-03-08T12:07:48;15.80;99.90
69418;DHT22;56610;48.872;2.400;2023-03-08T12:10:24;15.50;99.90
69418;DHT22;56610;48.872;2.400;2023-03-08T12:12:58;15.40;99.90
69418;DHT22;56610;48.872;2.400;2023-03-08T12:18:00;15.20;99.90
69418;DHT22;56610;48.872;2.400;2023-03-08T12:20:33;15.20;99.90
69418;DHT22;56610;48.872;2.400;2023-03-08T12:23:17;15.10;99.90
69418;DHT22;56610;48.872;2.400;2023-03-08T12:25:49;15.10;99.90
69418;DHT22;56610;48.872;2.400;2023-03-08T12:28:27;15.20;99.90
69418;DHT22;56610;48.872;2.400;2023-03-08T12:31:02;15.20;99.90
69418;DHT22;56610;48.872;2.400;2023-03-08T12:33:32;15.40;99.90
69418;DHT22;56610;48.872;2.400;2023-03-08T12:36:07;15.40;99.90
69418;DHT22;56610;48.872;2.400;2023-03-08T12:38:36;15.50;99.90
69418;DHT22;56610;48.872;2.400;2023-03-08T12:41:20;15.50;99.90
69418;DHT22;56610;48.872;2.400;2023-03-08T12:43:46;15.60;99.90
69418;DHT22;56610;48.872;2.400;2023-03-08T12:46:11;15.90;99.90
69418;DHT22;56610;48.872;2.400;2023-03-08T12:53:43;16.00;99.90
69418;DHT22;56610;48.872;2.400;2023-03-08T12:59:02;16.00;99.90
69418;DHT22;56610;48.872;2.400;2023-03-08T13:01:44;16.10;99.90
69418;DHT22;56610;48.872;2.400;2023-03-08T13:04:29;16.10;99.90
69418;DHT22;56610;48.872;2.400;2023-03-08T13:09:42;16.10;99.90
69418;DHT22;56610;48.872;2.400;2023-03-08T13:14:42;16.00;99.90
69418;DHT22;56610;48.872;2.400;2023-03-08T13:20:22;16.10;99.90
69418;DHT22;56610;48.872;2.400;2023-03-08T13:23:09;16.20;99.90
69418;DHT22;56610;48.872;2.400;2023-03-08T13:28:21;16.00;99.90
69418;DHT22;56610;48.872;2.400;2023-03-08T13:30:59;16.10;99.90
69418;DHT22;56610;48.872;2.400;2023-03-08T13:33:30;16.00;99.90
69418;DHT22;56610;48.872;2.400;2023-03-08T13:36:00;15.90;99.90
69418;DHT22;56610;48.872;2.400;2023-03-08T13:38:29;15.90;99.90
69418;DHT22;56610;48.872;2.400;2023-03-08T13:40:57;15.90;99.90
69418;DHT22;56610;48.872;2.400;2023-03-08T13:43:25;15.80;99.90
69418;DHT22;56610;48.872;2.400;2023-03-08T13:45:53;15.80;99.90
69418;DHT22;56610;48.872;2.400;2023-03-08T13:48:20;15.80;99.90
69418;DHT22;56610;48.872;2.400;2023-03-08T13:50:49;15.80;99.90
69418;DHT22;56610;48.872;2.400;2023-03-08T13:53:21;15.70;99.90
69418;DHT22;56610;48.872;2.400;2023-03-08T13:55:50;15.70;99.90
69418;DHT22;56610;48.872;2.400;2023-03-08T13:58:40;15.70;99.90
69418;DHT22;56610;48.872;2.400;2023-03-08T14:01:13;15.60;99.90
69418;DHT22;56610;48.872;2.400;2023-03-08T14:03:40;15.60;99.90
69418;DHT22;56610;48.872;2.400;2023-03-08T14:06:20;15.60;99.90
69418;DHT22;56610;48.872;2.400;2023-03-08T14:08:46;15.50;99.90
69418;DHT22;56610;48.872;2.400;2023-03-08T14:11:22;15.50;99.90
69418;DHT22;56610;48.872;2.400;2023-03-08T14:13:52;15.40;99.90
69418;DHT22;56610;48.872;2.400;2023-03-08T14:16:33;15.60;99.90
69418;DHT22;56610;48.872;2.400;2023-03-08T14:21:50;15.60;99.90
69418;DHT22;56610;48.872;2.400;2023-03-08T14:24:22;15.40;99.90
69418;DHT22;56610;48.872;2.400;2023-03-08T14:26:56;15.40;99.90
69418;DHT22;56610;48.872;2.400;2023-03-08T14:29:24;15.40;99.90
69418;DHT22;56610;48.872;2.400;2023-03-08T14:34:41;15.10;99.90
69418;DHT22;56610;48.872;2.400;2023-03-08T14:37:27;15.10;99.90
69418;DHT22;56610;48.872;2.400;2023-03-08T14:39:55;15.10;99.90
69418;DHT22;56610;48.872;2.400;2023-03-08T14:42:39;15.10;99.90
69418;DHT22;56610;48.872;2.400;2023-03-08T14:45:25;15.20;99.90
69418;DHT22;56610;48.872;2.400;2023-03-08T14:47:56;15.30;99.90
69418;DHT22;56610;48.872;2.400;2023-03-08T14:50:32;15.30;99.90
69418;DHT22;56610;48.872;2.400;2023-03-08T14:53:00;15.30;99.90
69418;DHT22;56610;48.872;2.400;2023-03-08T14:55:31;15.20;99.90
69418;DHT22;56610;48.872;2.400;2023-03-08T14:58:00;15.20;99.90
69418;DHT22;56610;48.872;2.400;2023-03-08T15:00:27;15.10;99.90
69418;DHT22;56610;48.872;2.400;2023-03-08T15:02:55;15.00;99.90
69418;DHT22;56610;48.872;2.400;2023-03-08T15:05:22;15.00;99.90
69418;DHT22;56610;48.872;2.400;2023-03-08T15:07:48;14.90;99.90
69418;DHT22;56610;48.872;2.400;2023-03-08T15:10:34;14.70;99.90
69418;DHT22;56610;48.872;2.400;2023-03-08T15:13:05;14.70;99.90
69418;DHT22;56610;48.872;2.400;2023-03-08T15:15:33;14.70;99.90
69418;DHT22;56610;48.872;2.400;2023-03-08T15:17:59;14.80;99.90
69418;DHT22;56610;48.872;2.400;2023-03-08T15:20:24;14.90;99.90
69418;DHT22;56610;48.872;2.400;2023-03-08T15:22:56;14.90;99.90
69418;DHT22;56610;48.872;2.400;2023-03-08T15:25:35;15.00;99.90
69418;DHT22;56610;48.872;2.400;2023-03-08T15:28:01;15.00;99.90
69418;DHT22;56610;48.872;2.400;2023-03-08T15:30:28;14.90;99.90
69418;DHT22;56610;48.872;2.400;2023-03-08T15:32:54;15.00;99.90
69418;DHT22;56610;48.872;2.400;2023-03-08T15:35:21;15.10;99.90
69418;DHT22;56610;48.872;2.400;2023-03-08T15:37:47;15.00;99.90
69418;DHT22;56610;48.872;2.400;2023-03-08T15:40:17;15.00;99.90
69418;DHT22;56610;48.872;2.400;2023-03-08T15:42:44;14.90;99.90
69418;DHT22;56610;48.872;2.400;2023-03-08T15:45:10;14.90;99.90
69418;DHT22;56610;48.872;2.400;2023-03-08T15:47:36;15.00;99.90
69418;DHT22;56610;48.872;2.400;2023-03-08T15:50:22;15.00;99.90
69418;DHT22;56610;48.872;2.400;2023-03-08T15:52:48;15.00;99.90
69418;DHT22;56610;48.872;2.400;2023-03-08T15:55:14;15.10;99.90
69418;DHT22;56610;48.872;2.400;2023-03-08T15:57:40;15.20;99.90
69418;DHT22;56610;48.872;2.400;2023-03-08T16:00:08;15.20;99.90
69418;DHT22;56610;48.872;2.400;2023-03-08T16:05:22;15.00;99.90
69418;DHT22;56610;48.872;2.400;2023-03-08T16:07:56;14.90;99.90
69418;DHT22;56610;48.872;2.400;2023-03-08T16:10:24;14.90;99.90
69418;DHT22;56610;48.872;2.400;2023-03-08T16:12:50;15.00;99.90
69418;DHT22;56610;48.872;2.400;2023-03-08T16:15:16;14.90;99.90
69418;DHT22;56610;48.872;2.400;2023-03-08T16:17:45;14.90;99.90
69418;DHT22;56610;48.872;2.400;2023-03-08T16:20:12;14.90;99.90
69418;DHT22;56610;48.872;2.400;2023-03-08T16:22:38;15.00;99.90
69418;DHT22;56610;48.872;2.400;2023-03-08T16:25:05;15.10;99.90
69418;DHT22;56610;48.872;2.400;2023-03-08T16:27:31;15.20;99.90
69418;DHT22;56610;48.872;2.400;2023-03-08T16:29:59;15.20;99.90
69418;DHT22;56610;48.872;2.400;2023-03-08T16:32:27;15.20;99.90
69418;DHT22;56610;48.872;2.400;2023-03-08T16:34:56;15.20;99.90
69418;DHT22;56610;48.872;2.400;2023-03-08T16:37:22;15.10;99.90
69418;DHT22;56610;48.872;2.400;2023-03-08T16:39:49;15.20;99.90
69418;DHT22;56610;48.872;2.400;2023-03-08T16:42:15;15.20;99.90
69418;DHT22;56610;48.872;2.400;2023-03-08T16:44:52;15.30;99.90
69418;DHT22;56610;48.872;2.400;2023-03-08T16:47:19;15.40;99.90
69418;DHT22;56610;48.872;2.400;2023-03-08T16:49:45;15.30;99.90
69418;DHT22;56610;48.872;2.400;2023-03-08T16:52:10;15.20;99.90
69418;DHT22;56610;48.872;2.400;2023-03-08T16:54:36;15.00;99.90